This is the latest recevied weather packets stored in our database for station/object W5HKR. If no packets are shown the sender has not sent any weather packets the latest 10 day(s).
| Time | Temp. | Humidity | Pressure | Rain* | Wind** | Luminosity | Snow |
|---|---|---|---|---|---|---|---|
| 1777993707 | 18.33° C | 91% | 990.6 hPa | 0 mm | - | - | - |
| 1777993407 | 22.78° C | 89% | 981 hPa | 0 mm | - | - | - |
| 1777993107 | 18.33° C | 91% | 990.6 hPa | 0 mm | - | - | - |
| 1777992805 | 18.33° C | 91% | 990.6 hPa | 0 mm | - | - | - |
| 1777992718 | 22.22° C | 89% | 981.3 hPa | 0 mm | - | - | - |
| 1777992506 | 22.22° C | 89% | 980.5 hPa | 0 mm | - | - | - |
| 1777992207 | 22.22° C | 89% | 980.7 hPa | 0 mm | - | - | - |
| 1777991907 | 18.33° C | 91% | 990.6 hPa | 0 mm | - | - | - |
| 1777991638 | 22.22° C | 90% | 980.9 hPa | 0 mm | - | - | - |
| 1777991607 | 22.22° C | 90% | 981.2 hPa | 0 mm | - | - | - |
| 1777991306 | 18.33° C | 91% | 990.6 hPa | 0 mm | - | - | - |
| 1777991006 | 21.67° C | 91% | 981.3 hPa | 0 mm | - | - | - |
| 1777990705 | 21.67° C | 91% | 980.6 hPa | 0 mm | - | - | - |
| 1777990556 | 18.33° C | 91% | 990.6 hPa | 0 mm | - | - | - |
| 1777990405 | 18.33° C | 91% | 990.6 hPa | 0 mm | - | - | - |
| 1777989806 | 18.33° C | 91% | 990.6 hPa | 0 mm | - | - | - |
| 1777989478 | 21.11° C | 92% | 980.9 hPa | 0 mm | - | - | - |
| 1777989205 | 21.11° C | 92% | 980.7 hPa | 0 mm | - | - | - |
| 1777988906 | 18.33° C | 91% | 990.6 hPa | 0 mm | - | - | - |
| 1777988607 | 21.11° C | 92% | 980.6 hPa | 0 mm | - | - | - |
| 1777988396 | 21.11° C | 92% | 980.7 hPa | 0 mm | - | - | - |
| 1777988309 | 18.33° C | 91% | 990.6 hPa | 0 mm | - | - | - |
| 1777988006 | 21.11° C | 92% | 980.6 hPa | 0 mm | - | - | - |
| 1777987707 | 18.33° C | 91% | 990.6 hPa | 0 mm | - | - | - |
| 1777987406 | 21.11° C | 92% | 980.4 hPa | 0 mm | - | - | - |
* Rain latest hour (hover to see other rain measurements)
** Current wind speed in m/s (hover to see current wind gust speed)